Time;durP1;ratioP1;P1;durP2;ratioP2;P2;SDS_P1;SDS_P2;PMS_P1;PMS_P2;Temp;Humidity;BMP_temperature;BMP_pressure;BME280_temperature;BME280_humidity;BME280_pressure;Samples;Min_cycle;Max_cycle;Signal;HPM_P1;HPM_P2
2022/11/20 00:01:23;;;;;;;37.80;9.27;;;-0.20;99.90;;;;;;5078646;28;20044;-86
2022/11/20 00:03:52;;;;;;;36.15;11.18;;;0.70;99.90;;;;;;5094722;28;20040;-85
2022/11/20 00:06:20;;;;;;;26.17;10.18;;;0.70;99.90;;;;;;5095187;28;20040;-84
2022/11/20 00:08:47;;;;;;;18.63;8.00;;;-0.20;99.90;;;;;;5094937;28;20032;-86
2022/11/20 00:11:23;;;;;;;20.90;7.40;;;-0.20;99.90;;;;;;5061939;28;20148;-85
2022/11/20 00:13:52;;;;;;;16.23;7.35;;;-0.20;99.90;;;;;;5093755;28;20492;-85
2022/11/20 00:16:22;;;;;;;21.15;8.40;;;0.90;99.90;;;;;;5095107;28;20399;-86
2022/11/20 00:18:49;;;;;;;17.80;8.10;;;-0.10;99.90;;;;;;5094687;28;20048;-85
2022/11/20 00:21:21;;;;;;;12.65;6.63;;;-0.10;99.90;;;;;;5095288;28;20099;-86
2022/11/20 00:23:49;;;;;;;14.30;7.15;;;-0.20;99.90;;;;;;5094663;28;20069;-86
2022/11/20 00:26:18;;;;;;;12.23;6.30;;;0.00;99.90;;;;;;5113135;28;20078;-86
2022/11/20 00:28:53;;;;;;;17.08;7.05;;;-0.10;99.90;;;;;;5125809;28;20040;-86
2022/11/20 00:31:20;;;;;;;12.95;6.53;;;-0.10;99.90;;;;;;5115137;28;20441;-86
2022/11/20 00:33:47;;;;;;;13.55;6.07;;;0.50;99.90;;;;;;5131673;28;20122;-86
2022/11/20 00:36:16;;;;;;;12.55;5.47;;;0.50;99.90;;;;;;5098046;28;20563;-85
2022/11/20 00:38:44;;;;;;;16.55;6.53;;;0.80;99.90;;;;;;5130792;28;20046;-85
2022/11/20 00:41:13;;;;;;;12.35;6.53;;;0.00;99.90;;;;;;5131542;28;20040;-85
2022/11/20 00:43:40;;;;;;;21.67;6.22;;;0.00;99.90;;;;;;5114788;28;20053;-86
2022/11/20 00:46:10;;;;;;;13.57;5.80;;;0.00;99.90;;;;;;5131334;28;20059;-86
2022/11/20 00:48:37;;;;;;;12.43;5.97;;;0.00;99.90;;;;;;5114238;28;20044;-86
2022/11/20 00:51:04;;;;;;;10.68;5.78;;;0.10;99.90;;;;;;5080760;28;20154;-86
2022/11/20 00:53:31;;;;;;;14.13;5.88;;;0.00;99.90;;;;;;5097677;28;20495;-86
2022/11/20 00:56:00;;;;;;;12.00;5.85;;;0.50;99.90;;;;;;5113872;28;20044;-85
2022/11/20 00:58:37;;;;;;;15.05;5.90;;;1.00;99.90;;;;;;5129309;28;20404;-86
2022/11/20 01:01:09;;;;;;;12.20;5.88;;;0.00;99.90;;;;;;5110449;28;20044;-86
2022/11/20 01:03:39;;;;;;;12.75;5.90;;;0.10;99.90;;;;;;5094290;28;20488;-85
2022/11/20 01:06:11;;;;;;;11.35;5.63;;;0.10;99.90;;;;;;5093783;28;20032;-85
2022/11/20 01:08:38;;;;;;;14.32;5.53;;;0.60;99.90;;;;;;5094263;28;20044;-85
2022/11/20 01:11:08;;;;;;;12.73;5.97;;;0.90;99.90;;;;;;5093844;28;20054;-86
2022/11/20 01:13:38;;;;;;;16.25;5.47;;;0.40;99.90;;;;;;5110524;28;20400;-85
2022/11/20 01:16:09;;;;;;;13.07;5.78;;;0.90;99.90;;;;;;5110461;28;20075;-85
2022/11/20 01:18:38;;;;;;;14.27;5.95;;;0.10;99.90;;;;;;5093672;28;20044;-85
2022/11/20 01:21:12;;;;;;;12.38;5.22;;;0.90;99.90;;;;;;5123686;28;20920;-86
2022/11/20 01:23:41;;;;;;;11.77;5.70;;;0.10;99.90;;;;;;5113579;28;20039;-86
2022/11/20 01:26:10;;;;;;;11.50;4.93;;;0.70;99.90;;;;;;5130440;28;20449;-86
2022/11/20 01:28:38;;;;;;;11.90;5.75;;;0.10;99.90;;;;;;5113713;28;20384;-85
2022/11/20 01:31:12;;;;;;;12.25;5.72;;;0.10;99.90;;;;;;5113732;28;20078;-86
2022/11/20 01:33:40;;;;;;;12.82;5.57;;;0.40;99.90;;;;;;5094975;28;20131;-86
2022/11/20 01:36:08;;;;;;;11.80;6.20;;;0.20;99.90;;;;;;5076914;28;20085;-86
2022/11/20 01:38:35;;;;;;;14.60;5.80;;;0.20;99.90;;;;;;5093599;28;20093;-86
2022/11/20 01:41:01;;;;;;;11.32;5.25;;;0.20;99.90;;;;;;5109635;28;20040;-86
2022/11/20 01:43:28;;;;;;;11.70;5.68;;;0.20;99.90;;;;;;5060559;28;20669;-86
2022/11/20 01:46:16;;;;;;;10.80;4.68;;;0.10;99.90;;;;;;5075572;28;20052;-86
2022/11/20 01:49:21;;;;;;;11.88;5.18;;;0.10;99.90;;;;;;5069959;28;20048;-86
2022/11/20 01:52:01;;;;;;;14.20;5.78;;;0.30;99.90;;;;;;4990350;28;20110;-86
2022/11/20 01:54:36;;;;;;;11.30;5.20;;;0.30;99.90;;;;;;5060545;28;20107;-86
2022/11/20 01:57:04;;;;;;;11.25;5.45;;;0.20;99.90;;;;;;5069520;28;20048;-86
2022/11/20 01:59:31;;;;;;;13.30;6.07;;;1.00;99.90;;;;;;5053421;28;20041;-86
2022/11/20 02:01:58;;;;;;;10.77;5.07;;;0.10;99.90;;;;;;5081624;28;20484;-86
2022/11/20 02:04:25;;;;;;;16.55;5.60;;;0.70;99.90;;;;;;5073360;28;20036;-86
2022/11/20 02:07:03;;;;;;;11.65;5.15;;;0.70;99.90;;;;;;5089772;28;20115;-86
2022/11/20 02:09:30;;;;;;;15.30;6.03;;;0.20;99.90;;;;;;5090055;28;20081;-86
2022/11/20 02:11:58;;;;;;;13.75;6.07;;;0.20;99.90;;;;;;5072690;28;20045;-86
2022/11/20 02:14:26;;;;;;;11.85;5.40;;;0.20;99.90;;;;;;5072981;28;20114;-86
2022/11/20 02:16:54;;;;;;;11.02;5.40;;;0.20;99.90;;;;;;5089416;28;20040;-85
2022/11/20 02:19:30;;;;;;;10.77;5.10;;;0.20;99.90;;;;;;5089468;28;20071;-85
2022/11/20 02:22:19;;;;;;;10.48;5.07;;;0.20;99.90;;;;;;5082716;28;20041;-86
2022/11/20 02:24:47;;;;;;;12.32;5.63;;;0.80;99.90;;;;;;5069590;28;20475;-86
2022/11/20 02:27:15;;;;;;;11.55;5.18;;;0.20;99.90;;;;;;5052804;28;20416;-85
2022/11/20 02:29:52;;;;;;;13.77;5.90;;;0.80;99.90;;;;;;5069521;28;20044;-85
2022/11/20 02:32:25;;;;;;;10.23;5.20;;;0.70;99.90;;;;;;5074943;28;20047;-86
2022/11/20 02:34:51;;;;;;;11.48;5.95;;;0.20;99.90;;;;;;5079539;28;20507;-86
2022/11/20 02:37:20;;;;;;;11.65;5.50;;;0.60;99.90;;;;;;5071775;28;20037;-86
2022/11/20 02:39:49;;;;;;;11.98;6.00;;;0.20;99.90;;;;;;5073466;28;20090;-85
2022/11/20 02:42:16;;;;;;;13.05;5.53;;;0.30;99.90;;;;;;5072485;28;20041;-86
2022/11/20 02:44:43;;;;;;;11.77;5.85;;;0.80;99.90;;;;;;5039914;28;20075;-85
2022/11/20 02:47:10;;;;;;;14.40;6.00;;;0.20;99.90;;;;;;5072741;28;20041;-86
2022/11/20 02:49:36;;;;;;;12.52;5.90;;;0.20;99.90;;;;;;5072895;28;20654;-87
2022/11/20 02:52:03;;;;;;;14.50;5.20;;;0.10;99.90;;;;;;5072709;28;20048;-86
2022/11/20 02:54:30;;;;;;;12.73;5.50;;;0.10;99.90;;;;;;5056646;28;20037;-86
2022/11/20 02:56:57;;;;;;;15.15;5.93;;;0.40;99.90;;;;;;5089631;28;20044;-85
2022/11/20 02:59:24;;;;;;;12.25;5.50;;;0.20;99.90;;;;;;5056520;28;20075;-85
2022/11/20 03:01:50;;;;;;;12.25;5.63;;;0.50;99.90;;;;;;5056567;28;20045;-86
2022/11/20 03:04:17;;;;;;;11.23;5.28;;;0.40;99.90;;;;;;5056410;28;20041;-86
2022/11/20 03:06:44;;;;;;;13.13;5.80;;;0.20;99.90;;;;;;5057174;28;20364;-86
2022/11/20 03:09:10;;;;;;;14.07;5.65;;;0.60;99.90;;;;;;5060074;28;20047;-86
2022/11/20 03:11:37;;;;;;;11.68;5.90;;;0.10;99.90;;;;;;5059895;28;20131;-85
2022/11/20 03:14:04;;;;;;;12.57;5.68;;;0.10;99.90;;;;;;5059493;28;20485;-85
2022/11/20 03:16:32;;;;;;;13.82;6.03;;;0.10;99.90;;;;;;5063327;28;20097;-86
2022/11/20 03:18:59;;;;;;;10.65;4.97;;;0.10;99.90;;;;;;5056321;28;20052;-87
2022/11/20 03:21:26;;;;;;;11.95;5.40;;;0.20;99.90;;;;;;5056055;28;20119;-86
2022/11/20 03:23:54;;;;;;;12.68;5.47;;;0.20;99.90;;;;;;5056092;28;20037;-86
2022/11/20 03:26:25;;;;;;;12.65;5.63;;;0.20;99.90;;;;;;5072587;28;20507;-86
2022/11/20 03:28:55;;;;;;;13.98;5.50;;;0.20;99.90;;;;;;5072780;28;20043;-86
2022/11/20 03:31:31;;;;;;;11.27;5.70;;;0.90;99.90;;;;;;5071829;28;20045;-86
2022/11/20 03:33:58;;;;;;;12.30;5.90;;;0.20;99.90;;;;;;5088957;28;20473;-86
2022/11/20 03:36:26;;;;;;;15.00;6.00;;;0.50;99.90;;;;;;5077328;28;20044;-86
2022/11/20 03:38:54;;;;;;;10.38;5.38;;;0.20;99.90;;;;;;5092214;28;20416;-86
2022/11/20 03:41:24;;;;;;;11.23;5.30;;;1.20;99.90;;;;;;5091832;28;20492;-86
2022/11/20 03:43:53;;;;;;;13.40;5.97;;;1.10;99.90;;;;;;5092144;28;20093;-86
2022/11/20 03:46:20;;;;;;;10.70;5.57;;;0.20;99.90;;;;;;5107980;28;20053;-86
2022/11/20 03:48:47;;;;;;;22.73;5.82;;;0.20;99.90;;;;;;5074870;28;20481;-86
2022/11/20 03:51:16;;;;;;;11.10;6.15;;;0.20;99.90;;;;;;5075397;28;20041;-86
2022/11/20 03:53:46;;;;;;;13.10;5.95;;;0.30;99.90;;;;;;5092371;28;20503;-86
2022/11/20 03:56:16;;;;;;;12.57;5.60;;;1.10;99.90;;;;;;5108677;28;20042;-86
2022/11/20 03:58:43;;;;;;;12.80;5.60;;;0.70;99.90;;;;;;5092657;28;20088;-85
2022/11/20 04:01:21;;;;;;;11.52;5.18;;;0.20;99.90;;;;;;5088304;28;20052;-81
2022/11/20 04:03:51;;;;;;;13.48;6.43;;;0.70;99.90;;;;;;5071888;28;20037;-86
2022/11/20 04:06:37;;;;;;;12.95;6.40;;;0.30;99.90;;;;;;5072031;28;20072;-86
2022/11/20 04:09:05;;;;;;;11.57;5.53;;;0.30;99.90;;;;;;5089167;28;20105;-85
2022/11/20 04:11:34;;;;;;;11.02;5.38;;;0.50;99.90;;;;;;5058816;28;20044;-86
2022/11/20 04:14:03;;;;;;;12.48;5.75;;;0.30;99.90;;;;;;5091918;28;20044;-86
2022/11/20 04:16:33;;;;;;;12.18;5.97;;;0.30;99.90;;;;;;5091635;28;20182;-86
2022/11/20 04:19:01;;;;;;;12.13;5.63;;;0.20;99.90;;;;;;5091559;28;20408;-85
2022/11/20 04:21:28;;;;;;;13.32;5.95;;;0.30;99.90;;;;;;5069581;28;20033;-86
2022/11/20 04:23:56;;;;;;;13.05;6.68;;;0.20;99.90;;;;;;5071482;28;20040;-86
2022/11/20 04:26:25;;;;;;;13.80;6.28;;;0.20;99.90;;;;;;5071318;28;20029;-86
2022/11/20 04:28:52;;;;;;;10.80;5.72;;;0.90;99.90;;;;;;5098753;28;20036;-85
2022/11/20 04:31:22;;;;;;;14.48;6.25;;;0.30;99.90;;;;;;5091217;28;20040;-86
2022/11/20 04:33:49;;;;;;;12.50;5.80;;;0.30;99.90;;;;;;5091515;28;20044;-86
2022/11/20 04:36:21;;;;;;;14.27;6.10;;;0.30;99.90;;;;;;5091038;28;20032;-83
2022/11/20 04:38:52;;;;;;;13.30;6.20;;;0.30;99.90;;;;;;5084462;28;20043;-86
2022/11/20 04:41:21;;;;;;;11.48;5.57;;;0.40;99.90;;;;;;5081133;28;20079;-86
2022/11/20 04:43:49;;;;;;;12.25;5.10;;;0.30;99.90;;;;;;5107869;28;20054;-86
2022/11/20 04:46:20;;;;;;;12.88;6.10;;;0.30;99.90;;;;;;5065974;28;20483;-86
2022/11/20 04:48:47;;;;;;;12.30;5.68;;;0.30;99.90;;;;;;5070546;28;20120;-86
2022/11/20 04:51:14;;;;;;;13.75;6.07;;;-0.20;99.90;;;;;;5070673;28;20041;-86
2022/11/20 04:53:41;;;;;;;10.75;5.45;;;0.30;99.90;;;;;;5087326;28;20559;-86
2022/11/20 04:56:09;;;;;;;12.73;5.45;;;0.30;99.90;;;;;;5054461;28;20041;-86
2022/11/20 04:58:37;;;;;;;12.63;5.35;;;0.30;99.90;;;;;;5086832;28;20466;-85
2022/11/20 05:01:11;;;;;;;12.00;5.85;;;0.30;99.90;;;;;;5071939;28;20574;-86
2022/11/20 05:03:43;;;;;;;12.57;5.72;;;0.30;99.90;;;;;;5078031;28;20040;-86
2022/11/20 05:06:12;;;;;;;12.07;5.75;;;0.30;99.90;;;;;;5057184;28;20037;-86
2022/11/20 05:08:39;;;;;;;13.25;5.63;;;0.30;99.90;;;;;;5085277;28;20067;-86
2022/11/20 05:11:24;;;;;;;13.10;5.15;;;0.30;99.90;;;;;;5070522;28;20045;-86
2022/11/20 05:13:51;;;;;;;11.70;5.45;;;0.30;99.90;;;;;;5070906;28;20111;-87
2022/11/20 05:16:20;;;;;;;11.48;5.38;;;0.50;99.90;;;;;;5070727;28;20041;-86
2022/11/20 05:18:47;;;;;;;10.75;5.00;;;0.30;99.90;;;;;;5086879;28;20099;-86
2022/11/20 05:21:14;;;;;;;8.35;4.68;;;0.30;99.90;;;;;;5054083;28;20048;-85
2022/11/20 05:23:42;;;;;;;11.75;5.50;;;0.30;99.90;;;;;;5070291;28;20511;-86
2022/11/20 05:26:16;;;;;;;10.55;5.45;;;0.30;99.90;;;;;;5086777;28;20040;-86
2022/11/20 05:28:43;;;;;;;13.32;5.80;;;0.30;99.90;;;;;;5086719;28;20428;-86
2022/11/20 05:31:12;;;;;;;14.57;5.70;;;1.00;99.90;;;;;;5043754;28;20040;-87
2022/11/20 05:33:41;;;;;;;12.25;6.10;;;0.30;99.90;;;;;;5089880;28;20075;-85
2022/11/20 05:36:08;;;;;;;11.57;5.55;;;0.60;99.90;;;;;;5090105;28;20055;-86
2022/11/20 05:38:35;;;;;;;10.93;5.57;;;0.30;99.90;;;;;;5073478;28;20067;-86
2022/11/20 05:41:07;;;;;;;10.52;5.60;;;0.90;99.90;;;;;;5073233;28;20036;-86
2022/11/20 05:43:35;;;;;;;11.80;5.28;;;0.30;99.90;;;;;;5080426;28;20107;-86
2022/11/20 05:46:03;;;;;;;11.27;5.93;;;1.20;99.90;;;;;;5069620;28;20056;-86
2022/11/20 05:48:30;;;;;;;12.43;5.68;;;0.30;99.90;;;;;;5069928;28;20091;-86
2022/11/20 05:50:59;;;;;;;11.90;5.38;;;0.30;99.90;;;;;;5087923;28;20424;-86
2022/11/20 05:53:25;;;;;;;15.02;5.90;;;0.60;99.90;;;;;;5069995;28;20049;-86
2022/11/20 05:56:18;;;;;;;12.20;5.50;;;0.30;99.90;;;;;;5036942;28;20052;-86
2022/11/20 05:58:46;;;;;;;11.32;5.70;;;0.30;99.90;;;;;;5069481;28;20488;-86
2022/11/20 06:01:16;;;;;;;10.77;5.75;;;0.40;99.90;;;;;;5070033;28;20047;-86
2022/11/20 06:03:45;;;;;;;11.48;5.22;;;0.30;99.90;;;;;;5069871;28;20036;-86
2022/11/20 06:06:13;;;;;;;14.00;5.60;;;0.40;99.90;;;;;;5053549;28;20568;-86
2022/11/20 06:08:40;;;;;;;12.23;5.80;;;0.50;99.90;;;;;;5069508;28;20120;-87
2022/11/20 06:11:09;;;;;;;12.27;5.55;;;0.30;99.90;;;;;;5036111;28;20124;-87
2022/11/20 06:13:36;;;;;;;13.18;5.75;;;0.40;99.90;;;;;;5102186;28;20119;-87
2022/11/20 06:16:03;;;;;;;11.43;5.22;;;0.40;99.90;;;;;;5089626;28;20070;-86
2022/11/20 06:18:30;;;;;;;12.60;5.45;;;0.40;99.90;;;;;;5089700;28;20493;-85
2022/11/20 06:21:15;;;;;;;15.55;6.18;;;0.40;99.90;;;;;;5089557;28;20051;-86
2022/11/20 06:23:42;;;;;;;12.27;5.63;;;0.40;99.90;;;;;;5089597;28;20048;-86
2022/11/20 06:26:14;;;;;;;15.38;6.15;;;0.40;99.90;;;;;;5089558;28;20515;-87
2022/11/20 06:28:41;;;;;;;10.98;5.47;;;0.60;99.90;;;;;;5089413;28;20493;-87
2022/11/20 06:31:11;;;;;;;13.52;5.78;;;0.40;99.90;;;;;;5073055;28;20040;-87
2022/11/20 06:33:37;;;;;;;13.32;6.32;;;0.40;99.90;;;;;;5088906;28;20044;-86
2022/11/20 06:36:04;;;;;;;12.05;5.72;;;0.80;99.90;;;;;;5073075;28;20041;-86
2022/11/20 06:38:31;;;;;;;13.57;6.80;;;0.40;99.90;;;;;;5089635;28;20036;-86
2022/11/20 06:40:58;;;;;;;16.42;7.38;;;0.40;99.90;;;;;;5072740;28;20043;-86
2022/11/20 06:43:25;;;;;;;14.25;6.90;;;0.40;99.90;;;;;;5071017;28;20089;-86
2022/11/20 06:45:53;;;;;;;15.75;7.07;;;1.20;99.90;;;;;;5072621;28;20501;-86
2022/11/20 06:48:21;;;;;;;14.95;7.03;;;0.50;99.90;;;;;;5073002;28;20040;-87
2022/11/20 06:50:47;;;;;;;12.77;6.43;;;0.40;99.90;;;;;;5089158;28;20407;-86
2022/11/20 06:53:14;;;;;;;14.35;6.68;;;0.70;99.90;;;;;;5103247;28;20119;-86
2022/11/20 06:55:45;;;;;;;12.38;6.43;;;1.30;99.90;;;;;;5052813;28;20040;-86
2022/11/20 06:58:13;;;;;;;15.48;6.53;;;1.50;99.90;;;;;;5069579;28;20045;-87
2022/11/20 07:00:40;;;;;;;13.00;6.50;;;0.30;99.90;;;;;;5052409;28;20045;-86
2022/11/20 07:03:09;;;;;;;12.85;6.63;;;0.30;99.90;;;;;;5069092;28;20385;-87
2022/11/20 07:05:36;;;;;;;12.73;5.85;;;0.30;99.90;;;;;;5103643;28;20059;-85
2022/11/20 07:08:04;;;;;;;12.13;5.97;;;0.30;99.90;;;;;;5073117;28;20128;-87
2022/11/20 07:10:31;;;;;;;12.32;6.25;;;0.30;99.90;;;;;;5089023;28;20048;-85
2022/11/20 07:12:58;;;;;;;11.50;6.03;;;0.80;99.90;;;;;;5072458;28;20131;-86
2022/11/20 07:15:25;;;;;;;11.02;5.18;;;0.30;99.90;;;;;;5042695;28;20128;-87
2022/11/20 07:17:52;;;;;;;13.63;5.65;;;0.90;99.90;;;;;;5052336;28;20076;-87
2022/11/20 07:20:19;;;;;;;11.13;5.97;;;0.20;99.90;;;;;;5052668;28;20119;-86
2022/11/20 07:22:46;;;;;;;13.00;6.25;;;0.30;99.90;;;;;;5054109;28;20492;-87
2022/11/20 07:25:12;;;;;;;11.63;5.57;;;0.30;99.90;;;;;;5042780;28;20120;-87
2022/11/20 07:27:39;;;;;;;11.93;5.05;;;0.30;99.90;;;;;;5052156;28;20033;-87
2022/11/20 07:30:06;;;;;;;11.63;5.82;;;1.20;99.90;;;;;;5061000;28;20041;-87
2022/11/20 07:32:33;;;;;;;10.68;5.68;;;0.30;99.90;;;;;;5057486;28;20585;-88
2022/11/20 07:35:00;;;;;;;11.07;5.28;;;0.30;99.90;;;;;;5088448;28;20112;-89
2022/11/20 07:37:26;;;;;;;12.95;5.80;;;0.40;99.90;;;;;;5040141;28;20037;-86
2022/11/20 07:39:54;;;;;;;11.98;5.85;;;1.10;99.90;;;;;;5056378;28;20119;-91
2022/11/20 07:42:21;;;;;;;10.98;5.55;;;0.40;99.90;;;;;;5040448;28;20076;-88
2022/11/20 07:44:47;;;;;;;12.52;5.70;;;1.50;99.90;;;;;;5105825;28;20068;-88
2022/11/20 07:47:14;;;;;;;12.98;6.68;;;0.50;99.90;;;;;;5108988;28;20052;-89
2022/11/20 07:49:41;;;;;;;14.80;6.10;;;1.00;99.90;;;;;;5076494;28;20036;-89
2022/11/20 07:52:07;;;;;;;14.10;6.03;;;1.00;99.90;;;;;;5099420;28;20036;-89
2022/11/20 07:54:34;;;;;;;15.05;6.45;;;0.50;99.90;;;;;;5065053;28;20046;-87
2022/11/20 07:57:00;;;;;;;11.85;5.95;;;0.90;99.90;;;;;;5079856;28;20105;-89
2022/11/20 07:59:27;;;;;;;13.27;5.43;;;0.60;99.90;;;;;;5117301;28;20154;-89
2022/11/20 08:01:55;;;;;;;13.85;5.82;;;1.70;99.90;;;;;;5085661;28;20412;-89
2022/11/20 08:04:23;;;;;;;12.10;5.50;;;1.30;99.90;;;;;;5110283;28;20044;-88
2022/11/20 08:06:51;;;;;;;10.50;5.18;;;0.60;99.90;;;;;;5118418;28;20464;-88
2022/11/20 08:09:18;;;;;;;13.43;6.30;;;0.60;99.90;;;;;;5088524;28;20423;-89
2022/11/20 08:14:29;;;;;;;11.13;5.45;;;0.60;99.90;;;;;;5087439;28;20418;-88
2022/11/20 08:16:56;;;;;;;9.93;5.22;;;0.60;99.90;;;;;;5112857;28;20040;-87
2022/11/20 08:19:23;;;;;;;9.45;5.03;;;0.70;99.90;;;;;;5076583;28;20037;-89
2022/11/20 08:21:49;;;;;;;11.35;5.13;;;0.70;99.90;;;;;;5091126;28;20127;-87
2022/11/20 08:24:16;;;;;;;11.98;4.85;;;0.70;99.90;;;;;;5068258;28;20035;-88
2022/11/20 08:26:43;;;;;;;12.35;4.97;;;0.70;99.90;;;;;;5095986;28;20032;-88
2022/11/20 08:29:10;;;;;;;10.32;4.85;;;0.80;99.90;;;;;;5092373;28;20047;-88
2022/11/20 08:31:36;;;;;;;12.10;5.22;;;0.70;99.90;;;;;;5094383;28;20044;-87
2022/11/20 08:34:03;;;;;;;13.88;6.03;;;0.70;99.90;;;;;;5074204;28;20078;-87
2022/11/20 08:36:33;;;;;;;15.82;5.47;;;0.70;99.90;;;;;;5060690;28;20040;-88
2022/11/20 08:39:01;;;;;;;10.85;5.25;;;1.50;99.90;;;;;;5087658;28;20401;-87
2022/11/20 08:41:31;;;;;;;12.00;6.13;;;1.80;99.90;;;;;;5103509;28;20043;-87
2022/11/20 08:44:01;;;;;;;13.07;6.70;;;0.70;99.90;;;;;;5096555;28;20089;-87
2022/11/20 08:46:36;;;;;;;12.65;6.47;;;0.70;99.90;;;;;;5081417;28;20390;-86
2022/11/20 08:49:08;;;;;;;10.73;5.68;;;0.80;99.90;;;;;;5071850;28;20400;-87
2022/11/20 08:51:35;;;;;;;11.90;5.80;;;0.70;99.90;;;;;;5108717;28;20136;-87
2022/11/20 08:54:03;;;;;;;9.80;5.05;;;1.30;99.90;;;;;;5074494;28;20084;-86
2022/11/20 08:56:30;;;;;;;11.43;5.00;;;0.80;99.90;;;;;;5086226;28;20107;-86
2022/11/20 08:58:59;;;;;;;14.65;7.78;;;0.80;99.90;;;;;;5104150;28;20082;-87
2022/11/20 09:01:27;;;;;;;13.02;6.47;;;1.50;99.90;;;;;;5071018;28;20037;-86
2022/11/20 09:03:56;;;;;;;13.93;6.97;;;0.80;99.90;;;;;;5103496;28;20037;-86
2022/11/20 09:06:23;;;;;;;10.98;5.60;;;0.80;99.90;;;;;;5090897;28;20080;-86
2022/11/20 09:08:53;;;;;;;11.73;5.70;;;0.80;99.90;;;;;;5090553;28;20067;-85
2022/11/20 09:11:21;;;;;;;10.57;5.40;;;1.50;99.90;;;;;;5123549;28;20048;-86
2022/11/20 09:13:47;;;;;;;10.80;5.57;;;1.90;99.90;;;;;;5090254;28;20510;-86
2022/11/20 09:16:14;;;;;;;10.45;5.30;;;0.90;99.90;;;;;;5105362;28;20131;-86
2022/11/20 09:18:41;;;;;;;13.95;6.97;;;1.70;99.90;;;;;;5086883;28;20045;-86
2022/11/20 09:21:13;;;;;;;10.02;5.53;;;1.00;99.90;;;;;;5069922;28;20040;-86
2022/11/20 09:23:40;;;;;;;11.98;5.32;;;1.00;99.90;;;;;;5086917;28;20037;-86
2022/11/20 09:26:14;;;;;;;13.95;6.32;;;1.00;99.90;;;;;;5069722;28;20037;-86
2022/11/20 09:28:41;;;;;;;10.35;5.68;;;1.00;99.90;;;;;;5070502;28;20044;-85
2022/11/20 09:31:09;;;;;;;10.38;5.30;;;1.00;99.90;;;;;;5069769;28;20044;-85
2022/11/20 09:33:36;;;;;;;13.13;7.03;;;1.90;99.90;;;;;;5086345;28;20036;-84
2022/11/20 09:36:03;;;;;;;12.68;5.45;;;1.00;99.90;;;;;;5056595;28;20051;-86
2022/11/20 09:38:30;;;;;;;13.25;6.18;;;1.00;99.90;;;;;;5080961;28;20047;-87
2022/11/20 09:41:05;;;;;;;12.50;5.18;;;1.00;99.90;;;;;;5067326;28;20060;-85
2022/11/20 09:43:58;;;;;;;9.90;4.95;;;1.00;99.90;;;;;;5123115;28;20037;-86
2022/11/20 09:46:42;;;;;;;14.43;6.18;;;1.00;99.90;;;;;;5085658;28;20055;-87
2022/11/20 09:49:27;;;;;;;11.18;5.00;;;1.10;99.90;;;;;;5092528;28;20044;-86
2022/11/20 09:52:15;;;;;;;9.63;5.17;;;1.10;99.90;;;;;;5106901;28;20045;-85
2022/11/20 09:54:43;;;;;;;10.10;5.18;;;1.10;99.90;;;;;;5089815;28;20290;-86
2022/11/20 09:57:18;;;;;;;10.25;5.07;;;1.20;99.90;;;;;;5073020;28;20040;-87
2022/11/20 09:59:50;;;;;;;11.60;6.03;;;1.20;99.90;;;;;;5074205;28;20049;-87
2022/11/20 10:02:23;;;;;;;11.23;5.80;;;1.10;99.90;;;;;;5072276;28;20131;-86
2022/11/20 10:05:06;;;;;;;15.98;6.65;;;1.50;99.90;;;;;;5075003;28;20036;-85
2022/11/20 10:07:55;;;;;;;14.50;6.35;;;1.20;99.90;;;;;;5069964;28;20143;-85
2022/11/20 10:10:47;;;;;;;12.38;6.03;;;1.10;99.90;;;;;;5068923;28;20489;-85
2022/11/20 10:13:32;;;;;;;16.02;6.32;;;1.20;99.90;;;;;;5069364;28;20041;-86
2022/11/20 10:16:21;;;;;;;13.23;5.70;;;1.20;99.90;;;;;;5085244;28;20043;-85
2022/11/20 10:19:28;;;;;;;14.13;6.45;;;1.20;99.90;;;;;;5089045;28;20174;-85
2022/11/20 10:22:09;;;;;;;12.95;6.25;;;1.30;99.90;;;;;;5082226;28;20055;-86
2022/11/20 10:25:14;;;;;;;11.00;5.47;;;1.30;99.90;;;;;;5085976;28;20096;-83
2022/11/20 10:27:50;;;;;;;12.18;5.72;;;1.40;99.90;;;;;;5081589;28;20076;-85
2022/11/20 10:30:21;;;;;;;11.27;5.90;;;1.40;99.90;;;;;;5087095;28;20039;-84
2022/11/20 10:33:14;;;;;;;10.23;5.28;;;1.40;99.90;;;;;;5070139;28;20068;-85
2022/11/20 10:36:15;;;;;;;10.45;5.57;;;1.40;99.90;;;;;;5081506;28;20098;-86
2022/11/20 10:38:56;;;;;;;11.02;5.13;;;1.40;99.90;;;;;;5078963;28;20040;-85
2022/11/20 10:41:30;;;;;;;11.05;5.35;;;1.40;99.90;;;;;;5068836;28;20048;-86
2022/11/20 10:44:12;;;;;;;9.77;4.78;;;1.40;99.90;;;;;;5078927;28;20041;-86
2022/11/20 10:46:43;;;;;;;7.78;4.45;;;1.50;99.90;;;;;;5086013;28;20515;-86
2022/11/20 10:49:16;;;;;;;11.15;5.28;;;2.70;99.90;;;;;;5093298;28;20048;-86
2022/11/20 10:52:02;;;;;;;11.32;4.72;;;1.60;99.90;;;;;;5068827;28;20079;-85
2022/11/20 10:54:38;;;;;;;11.02;5.18;;;1.60;99.90;;;;;;5092921;28;20800;-86
2022/11/20 10:57:28;;;;;;;;;;;1.60;99.90;;;;;;5069933;28;20091;-86
2022/11/20 11:00:06;;;;;;;12.27;5.25;;;1.70;99.90;;;;;;5072511;28;20375;-85
2022/11/20 11:02:35;;;;;;;10.30;4.93;;;1.70;99.90;;;;;;5085018;28;20048;-86
2022/11/20 11:05:35;;;;;;;9.68;4.55;;;1.80;99.90;;;;;;5072213;28;20037;-85
2022/11/20 11:08:04;;;;;;;8.43;4.47;;;1.80;99.90;;;;;;5078061;28;20701;-84
2022/11/20 11:10:52;;;;;;;9.40;4.43;;;1.90;99.90;;;;;;5092058;28;20144;-86
2022/11/20 11:13:21;;;;;;;10.02;4.47;;;1.90;99.90;;;;;;5092447;28;20102;-85
2022/11/20 11:15:48;;;;;;;9.98;4.85;;;1.90;99.90;;;;;;5090247;28;20040;-85
2022/11/20 11:18:34;;;;;;;12.70;5.68;;;2.00;99.90;;;;;;5087753;28;20040;-85
2022/11/20 11:21:04;;;;;;;8.05;4.25;;;2.00;99.90;;;;;;5092396;28;20037;-86
2022/11/20 11:23:41;;;;;;;11.20;4.88;;;2.00;99.90;;;;;;5093637;28;20170;-85
2022/11/20 11:26:20;;;;;;;11.20;4.82;;;2.00;99.90;;;;;;5079122;28;20047;-85
2022/11/20 11:28:59;;;;;;;18.70;5.20;;;2.00;99.90;;;;;;5084898;28;20033;-85
2022/11/20 11:31:35;;;;;;;9.18;4.70;;;2.00;99.90;;;;;;5076576;28;20075;-86
2022/11/20 11:34:12;;;;;;;10.45;5.10;;;2.20;99.90;;;;;;5071905;28;20124;-85
2022/11/20 11:36:40;;;;;;;13.50;5.53;;;2.10;99.90;;;;;;5071950;28;20056;-85
2022/11/20 11:39:14;;;;;;;13.68;5.88;;;2.10;99.90;;;;;;5087695;28;20045;-85
2022/11/20 11:41:41;;;;;;;10.02;5.15;;;2.10;99.90;;;;;;5083481;28;20133;-85
2022/11/20 11:47:41;;;;;;;11.52;5.30;;;2.20;99.90;;;;;;5087415;28;20049;-86
2022/11/20 11:50:08;;;;;;;11.18;5.38;;;2.20;99.90;;;;;;5107016;28;20444;-86
2022/11/20 11:53:16;;;;;;;12.82;5.63;;;2.20;99.90;;;;;;5091434;28;20059;-85
2022/11/20 11:55:51;;;;;;;10.73;4.68;;;2.20;99.90;;;;;;5073082;28;20455;-85
2022/11/20 11:58:41;;;;;;;11.00;5.30;;;2.20;99.90;;;;;;5091343;28;20044;-85
2022/11/20 12:01:29;;;;;;;8.55;4.07;;;2.20;99.90;;;;;;5090721;28;20105;-85
2022/11/20 12:04:05;;;;;;;8.32;4.15;;;2.30;99.90;;;;;;5091215;28;20067;-85
2022/11/20 12:06:36;;;;;;;12.70;5.82;;;2.20;99.90;;;;;;5107445;28;20055;-85
2022/11/20 12:09:06;;;;;;;13.68;5.57;;;2.30;99.90;;;;;;5087178;28;20045;-86
2022/11/20 12:11:52;;;;;;;10.40;4.75;;;2.30;99.90;;;;;;5086308;28;20087;-85
2022/11/20 12:14:39;;;;;;;;;;;2.60;99.90;;;;;;5090261;28;20135;-87
2022/11/20 12:17:10;;;;;;;10.60;4.88;;;2.40;99.90;;;;;;5087509;28;19917;-85
2022/11/20 12:19:37;;;;;;;7.68;4.10;;;2.30;99.90;;;;;;5095270;28;20422;-85
2022/11/20 12:22:40;;;;;;;8.32;4.10;;;2.40;99.90;;;;;;5057629;28;20052;-85
2022/11/20 12:25:31;;;;;;;8.35;3.90;;;2.40;99.90;;;;;;5090628;28;20040;-86
2022/11/20 12:28:23;;;;;;;8.77;4.25;;;2.40;99.90;;;;;;5070927;28;20538;-86
2022/11/20 12:31:02;;;;;;;9.80;4.25;;;2.50;99.90;;;;;;5098415;28;20066;-85
2022/11/20 12:34:04;;;;;;;7.70;3.70;;;2.70;99.90;;;;;;5090465;28;20083;-84
2022/11/20 12:37:05;;;;;;;6.50;3.33;;;2.50;99.90;;;;;;5072555;28;20040;-84
2022/11/20 12:39:42;;;;;;;6.78;3.58;;;2.50;99.90;;;;;;5087666;28;20044;-85
2022/11/20 12:45:28;;;;;;;10.27;4.30;;;2.60;99.90;;;;;;5104665;28;20037;-85
2022/11/20 12:48:01;;;;;;;6.72;3.65;;;2.60;99.90;;;;;;5089696;28;20040;-85
2022/11/20 12:50:37;;;;;;;8.07;3.50;;;2.70;99.90;;;;;;5082992;28;20036;-85
2022/11/20 12:53:21;;;;;;;7.15;3.63;;;2.70;99.90;;;;;;5082602;28;20083;-86
2022/11/20 12:56:00;;;;;;;8.27;3.75;;;2.70;99.90;;;;;;5079440;28;20033;-83
2022/11/20 12:58:46;;;;;;;8.10;3.67;;;2.70;99.90;;;;;;5104245;28;20098;-85
2022/11/20 13:01:47;;;;;;;9.67;3.53;;;2.70;99.90;;;;;;5089576;28;20067;-85
2022/11/20 13:04:36;;;;;;;6.90;3.30;;;2.70;99.90;;;;;;5090205;28;20047;-86
2022/11/20 13:07:07;;;;;;;7.75;4.07;;;2.70;99.90;;;;;;5090025;28;20051;-85
2022/11/20 13:09:40;;;;;;;8.23;3.47;;;2.70;99.90;;;;;;5106655;28;20687;-85
2022/11/20 13:12:18;;;;;;;7.65;2.92;;;2.80;99.90;;;;;;5089836;28;20046;-85
2022/11/20 13:14:57;;;;;;;7.85;3.00;;;2.80;99.90;;;;;;5089882;28;20073;-85
2022/11/20 13:17:51;;;;;;;6.30;3.40;;;2.80;99.90;;;;;;5089403;28;20052;-85
2022/11/20 13:20:19;;;;;;;7.82;3.35;;;2.70;99.90;;;;;;5088838;28;20040;-85
2022/11/20 13:22:59;;;;;;;8.15;3.60;;;3.30;99.90;;;;;;5085749;28;20508;-85